nearbyph.com alexa rank chart, nearbyph.com alexa rank daily changes

nearbyph.com alexa rank chart, nearbyph.com alexa rank daily changes

nearbyph.com
Actual rank:
156 623

RANK HISTORY

Date Rank Diff
2018/05/26 156 623 +1 343
2018/05/25 155 280 +35 330
2018/05/24 119 950 -23 259
2018/05/23 143 209 -65 337
2018/05/22 208 546 +51 646
2018/05/21 156 900 +11 752
2018/05/20 145 148 +15 073
2018/05/19 130 075 +6 587
2018/05/18 123 488 -3 079
2018/05/17 126 567 -58 840
2018/05/16 185 407 -22 311
2018/05/15 207 718 -454
2018/05/14 208 172 +91 189
2018/05/13 116 983 +10 854
2018/05/12 106 129 -87 183
2018/05/11 193 312 +62 718
2018/05/10 130 594 -20 190
2018/05/09 150 784 -20 277
2018/05/08 171 061 -143 312
2018/05/07 314 373 +183 245
2018/05/06 131 128 +2 275
2018/05/05 128 853 -110 444
2018/05/04 239 297 +11 590
2018/05/03 227 707 +102 550
2018/05/02 125 157 -182 351
2018/05/01 307 508 +94 600
2018/04/30 212 908 +23 278
2018/04/29 189 630 +16 412
2018/04/28 173 218 -59 673
2018/04/27 232 891 +71 896
2018/04/26 160 995 +23 157
2018/04/25 137 838 -45 146
2018/04/24 182 984 -49 907
2018/04/23 232 891 +86 924
2018/04/22 145 967 +9 531
2018/04/21 136 436 +15 043
2018/04/20 121 393 -110 780
2018/04/19 232 173 +76 509
2018/04/18 155 664 -159 132
2018/04/17 314 796 +142 331
2018/04/16 172 465 -2 255
2018/04/15 174 720 -7 834
2018/04/14 182 554 +32 997
2018/04/13 149 557 -32 594
2018/04/12 182 151 -18 069
2018/04/11 200 220 -4 063
2018/04/10 204 283 -20 816
2018/04/09 225 099 +142 559
2018/04/08 82 540 -71 968
2018/04/07 154 508 +15 609
2018/04/06 138 899 -21 778
2018/04/05 160 677 +29 232
2018/04/04 131 445 -52 665
2018/04/03 184 110 -1 231
2018/04/02 185 341 -119 048
2018/04/01 304 389 +19 913
2018/03/31 284 476 +127 404
2018/03/30 157 072 -12 715
2018/03/29 169 787 -16 332
2018/03/28 186 119 +8 770
2018/03/27 177 349

WIDGET FOR YOUR SITE

DOMAINS WITH THE NEAREST RANK

Domain Rank
user-experience.space 156 618
advance.hr 156 619
lampenwelt.at 156 620
aqparat.info 156 621
ghasedakdownload.org 156 622
nearbyph.com 156 623
host-files11.ru 156 624
laboamerica.com 156 625
the-guest.com 156 626
kerknet.be 156 627
sobremascotas.info 156 628

DOMAINS WITH THE NEAREST RANK BY TLD .com

Domain Rank
retrowaste.com 156 602
casperdns.com 156 604
sozunenguzeli.com 156 608
tiny-cams.com 156 611
greenbergwoods.com 156 613
nearbyph.com 156 623
laboamerica.com 156 625
the-guest.com 156 626
gayrookievideos.com 156 631
comicsmanics.com 156 634
dirtyflix.com 156 635